X  Fechar Metar - Info de Aeroporto     EBBR Brussels Airport
Temperatura
10°C Temperatura
4°C Ptº Orvalho
67% Humidade



Vento
8 M/S
17 MPH
27 KM/H
15 NÓS



340°
NNO
Condições Atuais

Area Aguaceiros Area Aguaceiros
Pressão 1012.87 (hPa) - 29.91 (inHg)
Visibilidade 6 (milha) - 9.7 (km)
Aeroporto
Código-Aeropoto EBBR

Localização: Brussels Airport
Distância: 10 (km)

Metar:
EBBR 191520Z 34015KT 310V010 9999 VCSH SCT030 10/04 Q1013 TEMPO 32017G27KT

Hora: 19-04-2024 17:20 CEST